KGYI

North Texas Regional / Perrin Field Airport

Sherman/Denison, Texas, USA
METAR KGYI 202355Z AUTO 32009KT 10SM CLR 29/18 A2997 RMK AO2 T02910179 10311 20282
Observed Flight Rules
Aug-20 @ 23:55 UTC (12 minutes ago) Visual Flight Rules
Wind Visibility Clouds
320° at 9 knots 10 miles
  • Clear skies
Temperatures Readings
Current 29°C / 84°F
Dewpoint 18°C / 64°F
Humidity 51%
Altimeter 29.97" Hg
Pressure 1015 hPa
Elevation 228
METAR KGYI 202355Z AUTO 32009KT 10SM CLR 29/18 A2997 RMK AO2 T02910179 10311 20282
Observed Flight Rules
Aug-20 @ 23:55 UTC
(12 minutes ago)
VFR
Wind Visibility
320° at 9 knots 10 miles
Clouds
  • Clear skies
Temperature Dewpoint
29°C / 84°F 18°C / 64°F
Humidity Altimeter Pressure
51% 29.97" Hg 1015 hPa